地図

経路データ

SID SEASON NUMBER BASIN SUBBASIN NAME ISO_TIME NATURE LAT LON WMO_WIND WMO_PRES WMO_AGENCY TRACK_TYPE DIST2LAND LANDFALL IFLAG USA_AGENCY USA_ATCF_ID USA_LAT USA_LON USA_RECORD USA_STATUS USA_WIND USA_PRES USA_SSHS USA_R34_NE USA_R34_SE USA_R34_SW USA_R34_NW USA_R50_NE USA_R50_SE USA_R50_SW USA_R50_NW USA_R64_NE USA_R64_SE USA_R64_SW USA_R64_NW USA_POCI USA_ROCI USA_RMW USA_EYE TOKYO_LAT TOKYO_LON TOKYO_GRADE TOKYO_WIND TOKYO_PRES TOKYO_R50_DIR TOKYO_R50_LONG TOKYO_R50_SHORT TOKYO_R30_DIR TOKYO_R30_LONG TOKYO_R30_SHORT TOKYO_LAND CMA_LAT CMA_LON CMA_CAT CMA_WIND CMA_PRES HKO_LAT HKO_LON HKO_CAT HKO_WIND HKO_PRES NEWDELHI_LAT NEWDELHI_LON NEWDELHI_GRADE NEWDELHI_WIND NEWDELHI_PRES NEWDELHI_CI NEWDELHI_DP NEWDELHI_POCI REUNION_LAT REUNION_LON REUNION_TYPE REUNION_WIND REUNION_PRES REUNION_TNUM REUNION_CI REUNION_RMW REUNION_R34_NE REUNION_R34_SE REUNION_R34_SW REUNION_R34_NW REUNION_R50_NE REUNION_R50_SE REUNION_R50_SW REUNION_R50_NW REUNION_R64_NE REUNION_R64_SE REUNION_R64_SW REUNION_R64_NW BOM_LAT BOM_LON BOM_TYPE BOM_WIND BOM_PRES BOM_TNUM BOM_CI BOM_RMW BOM_R34_NE BOM_R34_SE BOM_R34_SW BOM_R34_NW BOM_R50_NE BOM_R50_SE BOM_R50_SW BOM_R50_NW BOM_R64_NE BOM_R64_SE BOM_R64_SW BOM_R64_NW BOM_ROCI BOM_POCI BOM_EYE BOM_POS_METHOD BOM_PRES_METHOD NADI_LAT NADI_LON NADI_CAT NADI_WIND NADI_PRES WELLINGTON_LAT WELLINGTON_LON WELLINGTON_WIND WELLINGTON_PRES DS824_LAT DS824_LON DS824_STAGE DS824_WIND DS824_PRES TD9636_LAT TD9636_LON TD9636_STAGE TD9636_WIND TD9636_PRES TD9635_LAT TD9635_LON TD9635_WIND TD9635_PRES TD9635_ROCI NEUMANN_LAT NEUMANN_LON NEUMANN_CLASS NEUMANN_WIND NEUMANN_PRES MLC_LAT MLC_LON MLC_CLASS MLC_WIND MLC_PRES USA_GUST BOM_GUST BOM_GUST_PER REUNION_GUST REUNION_GUST_PER USA_SEAHGT USA_SEARAD_NE USA_SEARAD_SE USA_SEARAD_SW USA_SEARAD_NW STORM_SPEED STORM_DIR
1934275N21276 1934 61 NA CS NOT_NAMED 1934-10-01 12:00:00 TS 20.6000 -84.0000 25 hurdat_atl main 143 113 O_____________ hurdat_atl AL111934 20.6000 -84.0000 TD 25 -1 7 304
1934275N21276 1934 61 NA CS NOT_NAMED 1934-10-01 15:00:00 TS 20.8002 -84.3123 main 113 89 P_____________ AL111934 20.8002 -84.3123 TD 25 -1 7 306
1934275N21276 1934 61 NA CS NOT_NAMED 1934-10-01 18:00:00 TS 21.0000 -84.6000 25 hurdat_atl main 90 67 O_____________ hurdat_atl AL111934 21.0000 -84.6000 TD 25 -1 6 309
1934275N21276 1934 61 NA CS NOT_NAMED 1934-10-01 21:00:00 TS 21.1999 -84.8501 main 67 49 P_____________ AL111934 21.1999 -84.8501 TD 25 -1 6 311
1934275N21276 1934 61 NA CS NOT_NAMED 1934-10-02 00:00:00 TS 21.4000 -85.1000 25 hurdat_atl main 54 45 O_____________ hurdat_atl AL111934 21.4000 -85.1000 TD 25 -1 6 308
1934275N21276 1934 61 NA CS NOT_NAMED 1934-10-02 03:00:00 TS 21.6000 -85.3925 main 53 53 P_____________ AL111934 21.6000 -85.3925 TD 25 -1 7 306
1934275N21276 1934 61 NA CS NOT_NAMED 1934-10-02 06:00:00 TS 21.8000 -85.7000 25 hurdat_atl main 73 73 O_____________ hurdat_atl AL111934 21.8000 -85.7000 TD 25 -1 7 305
1934275N21276 1934 61 NA GM NOT_NAMED 1934-10-02 09:00:00 TS 22.0000 -86.0076 main 103 103 P_____________ AL111934 22.0000 -86.0076 TD 27 -1 7 306
1934275N21276 1934 61 NA GM NOT_NAMED 1934-10-02 12:00:00 TS 22.2000 -86.3000 30 hurdat_atl main 106 99 O_____________ hurdat_atl AL111934 22.2000 -86.3000 TD 30 -1 6 308
1934275N21276 1934 61 NA GM NOT_NAMED 1934-10-02 15:00:00 TS 22.3999 -86.5576 main 108 108 P_____________ AL111934 22.3999 -86.5576 TD 30 -1 6 311
1934275N21276 1934 61 NA GM NOT_NAMED 1934-10-02 18:00:00 TS 22.6000 -86.8000 30 hurdat_atl main 124 123 O_____________ hurdat_atl AL111934 22.6000 -86.8000 TD 30 -1 6 311
1934275N21276 1934 61 NA GM NOT_NAMED 1934-10-02 21:00:00 TS 22.8000 -87.0501 main 145 145 P_____________ AL111934 22.8000 -87.0501 TD 32 -1 6 311
1934275N21276 1934 61 NA GM NOT_NAMED 1934-10-03 00:00:00 TS 23.0000 -87.3000 35 hurdat_atl main 168 168 O_____________ hurdat_atl AL111934 23.0000 -87.3000 TS 35 0 6 311
1934275N21276 1934 61 NA GM NOT_NAMED 1934-10-03 03:00:00 TS 23.2000 -87.5575 main 190 190 P_____________ AL111934 23.2000 -87.5575 TS 35 0 6 311
1934275N21276 1934 61 NA GM NOT_NAMED 1934-10-03 06:00:00 TS 23.4000 -87.8000 35 hurdat_atl main 212 212 O_____________ hurdat_atl AL111934 23.4000 -87.8000 TS 35 0 6 314
1934275N21276 1934 61 NA GM NOT_NAMED 1934-10-03 09:00:00 TS 23.5999 -88.0076 main 234 234 P_____________ AL111934 23.5999 -88.0076 TS 35 0 5 318
1934275N21276 1934 61 NA GM NOT_NAMED 1934-10-03 12:00:00 TS 23.8000 -88.2000 35 hurdat_atl main 257 257 O_____________ hurdat_atl AL111934 23.8000 -88.2000 TS 35 0 5 318
1934275N21276 1934 61 NA GM NOT_NAMED 1934-10-03 15:00:00 TS 24.0000 -88.4075 main 279 279 P_____________ AL111934 24.0000 -88.4075 TS 37 0 5 318
1934275N21276 1934 61 NA GM NOT_NAMED 1934-10-03 18:00:00 TS 24.2000 -88.6000 40 hurdat_atl main 301 301 O_____________ hurdat_atl AL111934 24.2000 -88.6000 TS 40 0 5 321
1934275N21276 1934 61 NA GM NOT_NAMED 1934-10-03 21:00:00 TS 24.4000 -88.7650 main 324 324 P_____________ AL111934 24.4000 -88.7650 TS 40 0 5 326
1934275N21276 1934 61 NA GM NOT_NAMED 1934-10-04 00:00:00 TS 24.6000 -88.9000 40 hurdat_atl main 347 347 O_____________ hurdat_atl AL111934 24.6000 -88.9000 TS 40 0 5 330
1934275N21276 1934 61 NA GM NOT_NAMED 1934-10-04 03:00:00 TS 24.7925 -89.0150 main 371 371 P_____________ AL111934 24.7925 -89.0150 TS 42 0 4 336
1934275N21276 1934 61 NA GM NOT_NAMED 1934-10-04 06:00:00 TS 25.0000 -89.1000 45 hurdat_atl main 394 394 O_____________ hurdat_atl AL111934 25.0000 -89.1000 TS 45 0 5 342
1934275N21276 1934 61 NA GM NOT_NAMED 1934-10-04 09:00:00 TS 25.2350 -89.1724 main 418 390 P_____________ AL111934 25.2350 -89.1724 TS 45 0 5 350
1934275N21276 1934 61 NA GM NOT_NAMED 1934-10-04 12:00:00 TS 25.5000 -89.2000 45 hurdat_atl main 390 357 O_____________ hurdat_atl AL111934 25.5000 -89.2000 TS 45 0 6 0
1934275N21276 1934 61 NA GM NOT_NAMED 1934-10-04 15:00:00 TS 25.7850 -89.1874 main 357 323 P_____________ AL111934 25.7850 -89.1874 TS 45 0 6 8
1934275N21276 1934 61 NA GM NOT_NAMED 1934-10-04 18:00:00 TS 26.1000 -89.1000 45 hurdat_atl main 323 290 O_____________ hurdat_atl AL111934 26.1000 -89.1000 TS 45 0 7 20
1934275N21276 1934 61 NA GM NOT_NAMED 1934-10-04 21:00:00 TS 26.4275 -88.9225 main 290 248 P_____________ AL111934 26.4275 -88.9225 TS 45 0 8 27
1934275N21276 1934 61 NA GM NOT_NAMED 1934-10-05 00:00:00 TS 26.8000 -88.7000 45 hurdat_atl main 248 209 O_____________ hurdat_atl AL111934 26.8000 -88.7000 TS 45 0 9 25
1934275N21276 1934 61 NA GM NOT_NAMED 1934-10-05 03:00:00 TS 27.2350 -88.4999 main 209 164 P_____________ AL111934 27.2350 -88.4999 TS 47 0 10 22
1934275N21276 1934 61 NA GM NOT_NAMED 1934-10-05 06:00:00 TS 27.7000 -88.3000 50 hurdat_atl main 164 140 O_____________ hurdat_atl AL111934 27.7000 -88.3000 TS 50 0 10 22
1934275N21276 1934 61 NA GM NOT_NAMED 1934-10-05 09:00:00 TS 28.1500 -88.0850 main 132 120 P_____________ AL111934 28.1500 -88.0850 TS 50 0 10 21
1934275N21276 1934 61 NA GM NOT_NAMED 1934-10-05 12:00:00 TS 28.6000 -87.9000 50 hurdat_atl main 120 112 O_____________ hurdat_atl AL111934 28.6000 -87.9000 TS 50 0 10 16
1934275N21276 1934 61 NA GM NOT_NAMED 1934-10-05 15:00:00 TS 29.0649 -87.7848 main 116 83 P_____________ AL111934 29.0649 -87.7848 TS 50 0 9 11
1934275N21276 1934 61 NA GM NOT_NAMED 1934-10-05 18:00:00 TS 29.5000 -87.7000 50 hurdat_atl main 83 44 O_____________ hurdat_atl AL111934 29.5000 -87.7000 TS 50 0 8 8
1934275N21276 1934 61 NA GM NOT_NAMED 1934-10-05 21:00:00 TS 29.8754 -87.6537 main 44 11 P_____________ AL111934 29.8754 -87.6537 TS 47 0 7 14
1934275N21276 1934 61 NA GM NOT_NAMED 1934-10-06 00:00:00 TS 30.2000 -87.5000 45 hurdat_atl main 11 0 O_____________ hurdat_atl AL111934 30.2000 -87.5000 TS 45 0 7 27
1934275N21276 1934 61 NA GM NOT_NAMED 1934-10-06 01:00:00 TS 30.3000 -87.4000 45 hurdat_atl main 0 0 O_____________ hurdat_atl AL111934 30.3000 -87.4000 L TS 45 0 7 34
1934275N21276 1934 61 NA NA NOT_NAMED 1934-10-06 03:00:00 TS 30.4770 -87.2869 main 0 0 P_____________ AL111934 30.4770 -87.2869 TS 40 0 5 23
1934275N21276 1934 61 NA NA NOT_NAMED 1934-10-06 06:00:00 TS 30.7000 -87.2000 35 hurdat_atl main 0 0 O_____________ hurdat_atl AL111934 30.7000 -87.2000 TS 35 0 5 31
1934275N21276 1934 61 NA NA NOT_NAMED 1934-10-06 09:00:00 TS 30.9065 -86.9859 main 0 0 P_____________ AL111934 30.9065 -86.9859 TS 32 -1 6 47
1934275N21276 1934 61 NA NA NOT_NAMED 1934-10-06 12:00:00 ET 31.1000 -86.7000 30 hurdat_atl main 0 0 O_____________ hurdat_atl AL111934 31.1000 -86.7000 EX 30 -4 7 54
1934275N21276 1934 61 NA NA NOT_NAMED 1934-10-06 15:00:00 ET 31.2980 -86.3633 main 0 0 P_____________ AL111934 31.2980 -86.3633 EX 30 -4 7 56
1934275N21276 1934 61 NA NA NOT_NAMED 1934-10-06 18:00:00 ET 31.5000 -86.0000 30 hurdat_atl main 0 O_____________ hurdat_atl AL111934 31.5000 -86.0000 EX 30 -4 7 57

IBTrACS Databaseについて

本データベースは、米国NOAAが公開する1842年以降の世界の熱帯低気圧のベストトラックデータアーカイブInternational Best Track Archive for Climate Stewardship (IBTrACS)を、ウェブで閲覧しやすい形式に変換したものです。

最終更新日:2021-10-27